createdAt,value
2018-03-14T00:00:20.192Z,0.00
2018-03-14T00:01:20.232Z,0.00
2018-03-14T00:02:20.186Z,0.00
2018-03-14T00:03:20.171Z,0.00
2018-03-14T00:04:20.207Z,0.00
2018-03-14T00:05:20.169Z,0.00
2018-03-14T00:06:20.211Z,0.00
2018-03-14T00:07:20.156Z,0.00
2018-03-14T00:08:20.198Z,0.00
2018-03-14T00:09:20.147Z,0.00
2018-03-14T00:10:20.173Z,0.00
2018-03-14T00:11:20.181Z,0.00
2018-03-14T00:12:20.129Z,0.00
2018-03-14T00:13:20.112Z,0.00
2018-03-14T00:14:20.128Z,0.00
2018-03-14T00:15:20.110Z,0.00
2018-03-14T00:16:20.159Z,0.00
2018-03-14T00:17:20.134Z,0.00
2018-03-14T00:18:20.139Z,0.00
2018-03-14T00:19:20.115Z,0.00
2018-03-14T00:20:20.082Z,0.00
2018-03-14T00:21:20.087Z,0.00
2018-03-14T00:22:20.119Z,0.00
2018-03-14T00:23:20.082Z,0.00
2018-03-14T00:24:20.071Z,0.00
2018-03-14T00:25:20.065Z,0.00
2018-03-14T00:26:20.104Z,0.00
2018-03-14T00:27:20.063Z,0.00
2018-03-14T00:28:20.109Z,0.00
2018-03-14T00:29:20.106Z,0.00
2018-03-14T00:30:20.049Z,0.00
2018-03-14T00:31:20.901Z,0.00
2018-03-14T00:32:20.084Z,0.00
2018-03-14T00:33:20.057Z,0.00
2018-03-14T00:34:20.050Z,0.00
2018-03-14T00:35:20.024Z,0.00
2018-03-14T00:36:20.028Z,0.00
2018-03-14T00:37:20.061Z,0.00
2018-03-14T00:38:20.019Z,0.00
2018-03-14T00:39:20.016Z,0.00
2018-03-14T00:40:20.011Z,0.00
2018-03-14T00:41:20.014Z,0.00
2018-03-14T00:42:20.063Z,0.00
2018-03-14T00:43:19.998Z,0.00
2018-03-14T00:44:20.006Z,0.00
2018-03-14T00:45:19.993Z,0.00
2018-03-14T00:46:19.971Z,0.00
2018-03-14T00:47:19.979Z,0.00
2018-03-14T00:48:20.009Z,0.00
2018-03-14T00:49:19.978Z,0.00
2018-03-14T00:50:19.959Z,0.00
2018-03-14T00:51:19.953Z,0.00
2018-03-14T00:52:20.005Z,0.00
2018-03-14T00:53:20.003Z,0.00
2018-03-14T00:54:19.942Z,0.00
2018-03-14T00:55:19.928Z,0.00
2018-03-14T00:56:19.940Z,0.00
2018-03-14T00:57:19.926Z,0.00
2018-03-14T00:58:19.970Z,0.00
2018-03-14T00:59:19.913Z,0.00
2018-03-14T01:00:19.918Z,0.00
2018-03-14T01:01:19.916Z,0.00
2018-03-14T01:02:19.979Z,0.00
2018-03-14T01:03:19.901Z,0.00
2018-03-14T01:04:19.902Z,0.00
2018-03-14T01:05:19.902Z,0.00
2018-03-14T01:06:19.888Z,0.00
2018-03-14T01:07:19.884Z,0.00
2018-03-14T01:08:19.935Z,0.00
2018-03-14T01:09:19.870Z,0.00
2018-03-14T01:10:19.879Z,0.00
2018-03-14T01:11:19.916Z,0.00
2018-03-14T01:12:19.869Z,0.00
2018-03-14T01:13:19.898Z,0.00
2018-03-14T01:14:19.853Z,0.00
2018-03-14T01:15:19.841Z,0.00
2018-03-14T01:16:19.842Z,0.00
2018-03-14T01:17:19.829Z,0.00
2018-03-14T01:18:19.868Z,0.00
2018-03-14T01:19:19.817Z,0.00
2018-03-14T01:20:19.821Z,0.00
2018-03-14T01:21:19.830Z,0.00
2018-03-14T01:22:19.814Z,0.00
2018-03-14T01:23:19.844Z,0.00
2018-03-14T01:24:19.801Z,0.00
2018-03-14T01:25:19.816Z,0.00
2018-03-14T01:26:19.789Z,0.00
2018-03-14T01:27:19.796Z,0.00
2018-03-14T01:28:19.857Z,0.00
2018-03-14T01:29:19.775Z,0.00
2018-03-14T01:30:19.782Z,0.00
2018-03-14T01:31:19.767Z,0.00
2018-03-14T01:32:19.771Z,0.00
2018-03-14T01:33:19.798Z,0.00
2018-03-14T01:34:19.748Z,0.00
2018-03-14T01:35:19.758Z,0.00
2018-03-14T01:36:19.752Z,0.00
2018-03-14T01:37:19.766Z,0.00
2018-03-14T01:38:19.795Z,0.00
2018-03-14T01:39:19.734Z,0.00
2018-03-14T01:40:19.729Z,0.00
2018-03-14T01:41:19.712Z,0.00
2018-03-14T01:42:20.181Z,0.00
2018-03-14T01:43:19.752Z,0.00
2018-03-14T01:44:19.714Z,0.00
2018-03-14T01:45:19.706Z,0.00
2018-03-14T01:46:19.705Z,0.00
2018-03-14T01:47:19.695Z,0.00
2018-03-14T01:48:19.749Z,0.00
2018-03-14T01:49:19.672Z,0.00
2018-03-14T01:50:19.673Z,0.00
2018-03-14T01:51:19.680Z,0.00
2018-03-14T01:52:19.665Z,0.00
2018-03-14T01:53:19.699Z,0.00
2018-03-14T01:54:19.834Z,0.00
2018-03-14T01:55:19.667Z,0.00
2018-03-14T01:56:19.641Z,0.00
2018-03-14T01:57:19.647Z,0.00
2018-03-14T01:58:19.676Z,0.00
2018-03-14T01:59:19.639Z,0.00
2018-03-14T02:00:19.635Z,0.00
2018-03-14T02:01:19.629Z,0.00
2018-03-14T02:02:19.610Z,0.00
2018-03-14T02:03:19.659Z,0.00
2018-03-14T02:04:19.659Z,0.00
2018-03-14T02:05:19.606Z,0.00
2018-03-14T02:06:19.595Z,0.00
2018-03-14T02:07:19.586Z,0.00
2018-03-14T02:08:19.589Z,0.00
2018-03-14T02:09:19.630Z,0.00
2018-03-14T02:10:19.597Z,0.00
2018-03-14T02:11:19.569Z,0.00
2018-03-14T02:12:19.582Z,0.00
2018-03-14T02:13:19.570Z,0.00
2018-03-14T02:14:19.605Z,0.00
2018-03-14T02:15:19.576Z,0.00
2018-03-14T02:16:19.542Z,0.00
2018-03-14T02:17:19.542Z,0.00
2018-03-14T02:18:19.553Z,0.00
2018-03-14T02:19:19.572Z,0.00
2018-03-14T02:20:19.575Z,0.00
2018-03-14T02:21:19.521Z,0.00
2018-03-14T02:22:19.547Z,0.00
2018-03-14T02:23:19.510Z,0.00
2018-03-14T02:24:19.503Z,0.00
2018-03-14T02:25:19.545Z,0.00
2018-03-14T02:26:19.862Z,0.00
2018-03-14T02:27:19.496Z,0.00
2018-03-14T02:28:19.501Z,0.00
2018-03-14T02:29:19.489Z,0.00
2018-03-14T02:30:19.515Z,0.00
2018-03-14T02:31:19.468Z,0.00
2018-03-14T02:32:19.489Z,0.00
2018-03-14T02:33:19.462Z,0.00
2018-03-14T02:34:19.504Z,0.00
2018-03-14T02:35:19.507Z,0.00
2018-03-14T02:36:19.449Z,0.00
2018-03-14T02:37:19.442Z,0.00
2018-03-14T02:38:19.432Z,0.00
2018-03-14T02:39:19.438Z,0.00
2018-03-14T02:40:19.489Z,0.00
2018-03-14T02:41:19.436Z,0.00
2018-03-14T02:42:19.417Z,0.00
2018-03-14T02:43:19.420Z,0.00
2018-03-14T02:44:19.466Z,0.00
2018-03-14T02:45:19.411Z,0.00
2018-03-14T02:46:19.397Z,0.00
2018-03-14T02:47:19.409Z,0.00
2018-03-14T02:48:19.400Z,0.00
2018-03-14T02:49:19.468Z,0.00
2018-03-14T02:50:19.380Z,0.00
2018-03-14T02:51:19.385Z,0.00
2018-03-14T02:52:19.384Z,0.00
2018-03-14T02:53:19.376Z,0.00
2018-03-14T02:54:19.419Z,0.00
2018-03-14T02:55:19.366Z,0.00
2018-03-14T02:56:19.437Z,0.00
2018-03-14T02:57:19.362Z,0.00
2018-03-14T02:58:19.357Z,0.00
2018-03-14T02:59:19.355Z,0.00
2018-03-14T03:00:19.337Z,0.00
2018-03-14T03:01:19.376Z,0.00
2018-03-14T03:02:19.339Z,0.00
2018-03-14T03:03:19.308Z,0.00
2018-03-14T03:04:19.318Z,0.00
2018-03-14T03:05:19.320Z,0.00
2018-03-14T03:06:19.368Z,0.00
2018-03-14T03:07:19.310Z,0.00
2018-03-14T03:08:19.305Z,0.00
2018-03-14T03:09:19.338Z,0.00
2018-03-14T03:10:19.295Z,0.00
2018-03-14T03:11:19.349Z,0.00
2018-03-14T03:12:19.288Z,0.00
2018-03-14T03:13:19.281Z,0.00
2018-03-14T03:14:20.235Z,0.00
2018-03-14T03:15:19.676Z,0.00
2018-03-14T03:16:19.335Z,0.00
2018-03-14T03:17:19.263Z,0.00
2018-03-14T03:18:19.254Z,0.00
2018-03-14T03:19:19.309Z,0.00
2018-03-14T03:20:19.245Z,0.00
2018-03-14T03:21:19.294Z,0.00
2018-03-14T03:22:19.239Z,0.00
2018-03-14T03:23:19.237Z,0.00
2018-03-14T03:24:19.279Z,0.00
2018-03-14T03:25:19.219Z,0.00
2018-03-14T03:26:19.224Z,0.00
2018-03-14T03:27:19.244Z,0.00
2018-03-14T03:28:19.198Z,0.00
2018-03-14T03:29:19.206Z,0.00
2018-03-14T03:30:19.187Z,0.00
2018-03-14T03:31:19.190Z,0.00
2018-03-14T03:32:19.223Z,0.00
2018-03-14T03:33:19.171Z,0.00
2018-03-14T03:34:19.187Z,0.00
2018-03-14T03:35:19.174Z,0.00
2018-03-14T03:36:19.244Z,0.00
2018-03-14T03:37:19.156Z,0.00
2018-03-14T03:38:19.154Z,0.00
2018-03-14T03:39:19.203Z,0.00
2018-03-14T03:40:19.146Z,0.00
2018-03-14T03:41:19.142Z,0.00
2018-03-14T03:42:19.184Z,0.00
2018-03-14T03:43:19.143Z,0.00
2018-03-14T03:44:19.131Z,0.00
2018-03-14T03:45:19.113Z,0.00
2018-03-14T03:46:19.143Z,0.00
2018-03-14T03:47:19.156Z,0.00
2018-03-14T03:48:19.097Z,0.00
2018-03-14T03:49:19.104Z,0.00
2018-03-14T03:50:19.088Z,0.00
2018-03-14T03:51:19.091Z,0.00
2018-03-14T03:52:19.150Z,0.00
2018-03-14T03:53:19.088Z,0.00
2018-03-14T03:54:19.129Z,0.00
2018-03-14T03:55:19.082Z,0.00
2018-03-14T03:56:19.055Z,0.00
2018-03-14T03:57:19.061Z,0.00
2018-03-14T03:58:19.051Z,0.00
2018-03-14T03:59:19.080Z,0.00
2018-03-14T04:00:19.055Z,0.00
2018-03-14T04:01:19.042Z,0.00
2018-03-14T04:02:19.090Z,0.00
2018-03-14T04:03:19.044Z,0.00
2018-03-14T04:04:19.080Z,0.00
2018-03-14T04:05:19.012Z,0.00
2018-03-14T04:06:19.011Z,0.00
2018-03-14T04:07:19.006Z,0.00
2018-03-14T04:08:19.068Z,0.00
2018-03-14T04:09:19.037Z,0.00
2018-03-14T04:10:19.013Z,0.00
2018-03-14T04:11:18.986Z,0.00
2018-03-14T04:12:18.984Z,0.00
2018-03-14T04:13:18.989Z,0.00
2018-03-14T04:14:19.014Z,0.00
2018-03-14T04:15:18.961Z,0.00
2018-03-14T04:16:18.959Z,0.00
2018-03-14T04:17:18.964Z,0.00
2018-03-14T04:18:18.943Z,0.00
2018-03-14T04:19:18.979Z,0.00
2018-03-14T04:20:18.960Z,0.00
2018-03-14T04:21:19.693Z,0.00
2018-03-14T04:22:18.927Z,0.00
2018-03-14T04:23:18.923Z,0.00
2018-03-14T04:24:18.958Z,0.00
2018-03-14T04:25:18.913Z,0.00
2018-03-14T04:26:18.908Z,0.00
2018-03-14T04:27:18.903Z,0.00
2018-03-14T04:28:18.899Z,0.00
2018-03-14T04:29:18.967Z,0.00
2018-03-14T04:30:18.892Z,0.00
2018-03-14T04:31:18.881Z,0.00
2018-03-14T04:32:18.884Z,0.00
2018-03-14T04:33:18.874Z,0.00
2018-03-14T04:34:19.612Z,0.00
2018-03-14T04:35:18.907Z,0.00
2018-03-14T04:36:18.865Z,0.00
2018-03-14T04:37:18.856Z,0.00
2018-03-14T04:38:18.852Z,0.00
2018-03-14T04:39:18.887Z,0.00
2018-03-14T04:40:18.844Z,0.00
2018-03-14T04:41:18.835Z,0.00
2018-03-14T04:42:18.831Z,0.00
2018-03-14T04:43:18.827Z,0.00
2018-03-14T04:44:18.878Z,0.00
2018-03-14T04:45:18.815Z,0.00
2018-03-14T04:46:18.814Z,0.00
2018-03-14T04:47:18.806Z,0.00
2018-03-14T04:48:18.802Z,0.00
2018-03-14T04:49:18.851Z,0.00
2018-03-14T04:50:19.635Z,0.00
2018-03-14T04:51:18.796Z,0.00
2018-03-14T04:52:18.799Z,0.00
2018-03-14T04:53:18.780Z,0.00
2018-03-14T04:54:18.816Z,0.00
2018-03-14T04:55:18.770Z,0.00
2018-03-14T04:56:18.768Z,0.00
2018-03-14T04:57:18.781Z,0.00
2018-03-14T04:58:19.699Z,0.00
2018-03-14T04:59:18.986Z,0.00
2018-03-14T05:00:18.764Z,0.00
2018-03-14T05:01:18.743Z,0.00
2018-03-14T05:02:18.792Z,0.00
2018-03-14T05:03:18.733Z,0.00
2018-03-14T05:04:18.789Z,0.00
2018-03-14T05:05:18.727Z,0.00
2018-03-14T05:06:18.723Z,0.00
2018-03-14T05:07:18.729Z,0.00
2018-03-14T05:08:18.714Z,0.00
2018-03-14T05:09:18.743Z,0.00
2018-03-14T05:10:18.699Z,0.00
2018-03-14T05:11:18.697Z,0.00
2018-03-14T05:12:18.689Z,0.00
2018-03-14T05:13:18.688Z,0.00
2018-03-14T05:14:18.826Z,0.00
2018-03-14T05:15:18.683Z,0.00
2018-03-14T05:16:18.677Z,0.00
2018-03-14T05:17:18.675Z,0.00
2018-03-14T05:18:18.662Z,0.00
2018-03-14T05:19:18.754Z,0.00
2018-03-14T05:20:18.656Z,0.00
2018-03-14T05:21:18.648Z,0.00
2018-03-14T05:22:18.648Z,0.00
2018-03-14T05:23:18.640Z,0.00
2018-03-14T05:24:18.697Z,0.00
2018-03-14T05:25:18.642Z,0.00
2018-03-14T05:26:18.628Z,0.00
2018-03-14T05:27:18.620Z,5.63
2018-03-14T05:28:18.617Z,5.63
2018-03-14T05:29:18.660Z,5.63
2018-03-14T05:30:18.609Z,5.63
2018-03-14T05:31:18.604Z,5.63
2018-03-14T05:32:18.597Z,5.63
2018-03-14T05:33:18.594Z,11.25
2018-03-14T05:34:18.638Z,11.25
2018-03-14T05:35:18.627Z,11.25
2018-03-14T05:36:18.589Z,11.25
2018-03-14T05:37:18.574Z,16.88
2018-03-14T05:38:18.569Z,16.88
2018-03-14T05:39:18.608Z,16.88
2018-03-14T05:40:18.600Z,16.88
2018-03-14T05:41:18.560Z,22.50
2018-03-14T05:42:19.062Z,22.50
2018-03-14T05:43:18.548Z,22.50
2018-03-14T05:44:18.556Z,22.50
2018-03-14T05:45:18.998Z,28.13
2018-03-14T05:46:18.532Z,28.13
2018-03-14T05:47:18.529Z,28.13
2018-03-14T05:48:18.560Z,28.13
2018-03-14T05:49:18.514Z,28.13
2018-03-14T05:50:18.514Z,28.13
2018-03-14T05:51:18.564Z,28.13
2018-03-14T05:52:18.507Z,33.75
2018-03-14T05:53:18.507Z,28.13
2018-03-14T05:54:18.643Z,28.13
2018-03-14T05:55:18.491Z,28.13
2018-03-14T05:56:18.539Z,22.50
2018-03-14T05:57:18.482Z,22.50
2018-03-14T05:58:18.518Z,28.13
2018-03-14T05:59:18.474Z,28.13
2018-03-14T06:00:18.468Z,33.75
2018-03-14T06:01:18.504Z,33.75
2018-03-14T06:02:18.463Z,39.38
2018-03-14T06:03:18.590Z,39.38
2018-03-14T06:04:18.460Z,39.38
2018-03-14T06:05:18.491Z,39.38
2018-03-14T06:06:18.480Z,45.00
2018-03-14T06:07:18.570Z,45.00
2018-03-14T06:08:18.433Z,50.63
2018-03-14T06:09:18.429Z,50.63
2018-03-14T06:10:18.493Z,56.25
2018-03-14T06:11:18.915Z,67.50
2018-03-14T06:12:18.412Z,78.75
2018-03-14T06:13:18.408Z,84.38
2018-03-14T06:14:18.404Z,84.38
2018-03-14T06:15:18.401Z,78.75
2018-03-14T06:16:18.434Z,78.75
2018-03-14T06:17:18.389Z,78.75
2018-03-14T06:18:18.408Z,78.75
2018-03-14T06:19:18.386Z,78.75
2018-03-14T06:20:18.381Z,78.75
2018-03-14T06:21:18.428Z,73.13
2018-03-14T06:22:18.419Z,73.13
2018-03-14T06:23:18.367Z,73.13
2018-03-14T06:24:18.362Z,84.38
2018-03-14T06:25:18.359Z,95.63
2018-03-14T06:26:18.351Z,95.63
2018-03-14T06:27:18.387Z,95.63
2018-03-14T06:28:18.463Z,101.25
2018-03-14T06:29:18.337Z,106.88
2018-03-14T06:30:18.336Z,118.13
2018-03-14T06:31:18.338Z,140.63
2018-03-14T06:32:18.370Z,163.13
2018-03-14T06:33:19.058Z,151.88
2018-03-14T06:34:18.323Z,135.00
2018-03-14T06:35:18.313Z,129.38
2018-03-14T06:36:18.308Z,123.75
2018-03-14T06:37:18.356Z,140.63
2018-03-14T06:38:18.309Z,174.38
2018-03-14T06:39:18.298Z,219.38
2018-03-14T06:40:18.296Z,241.88
2018-03-14T06:41:18.288Z,264.38
2018-03-14T06:42:18.284Z,298.13
2018-03-14T06:43:18.323Z,298.13
2018-03-14T06:44:18.276Z,292.50
2018-03-14T06:45:18.290Z,247.50
2018-03-14T06:46:18.267Z,219.38
2018-03-14T06:47:18.267Z,230.63
2018-03-14T06:48:18.313Z,253.13
2018-03-14T06:49:18.256Z,247.50
2018-03-14T06:50:18.253Z,241.88
2018-03-14T06:51:18.249Z,236.25
2018-03-14T06:52:18.303Z,219.38
2018-03-14T06:53:18.238Z,202.50
2018-03-14T06:54:18.286Z,180.00
2018-03-14T06:55:18.256Z,163.13
2018-03-14T06:56:18.235Z,140.63
2018-03-14T06:57:18.265Z,129.38
2018-03-14T06:58:18.274Z,129.38
2018-03-14T06:59:18.215Z,118.13
2018-03-14T07:00:18.214Z,123.75
2018-03-14T07:01:18.209Z,146.25
2018-03-14T07:02:18.854Z,151.88
2018-03-14T07:03:18.201Z,168.75
2018-03-14T07:04:18.232Z,180.00
2018-03-14T07:05:18.193Z,180.00
2018-03-14T07:06:18.191Z,168.75
2018-03-14T07:07:18.188Z,129.38
2018-03-14T07:08:18.184Z,112.50
2018-03-14T07:09:18.219Z,106.88
2018-03-14T07:10:18.175Z,101.25
2018-03-14T07:11:18.167Z,84.38
2018-03-14T07:12:18.176Z,78.75
2018-03-14T07:13:18.162Z,90.00
2018-03-14T07:14:18.196Z,112.50
2018-03-14T07:15:18.158Z,123.75
2018-03-14T07:16:18.153Z,123.75
2018-03-14T07:17:18.569Z,146.25
2018-03-14T07:18:18.146Z,180.00
2018-03-14T07:19:18.189Z,241.88
2018-03-14T07:20:18.137Z,309.38
2018-03-14T07:21:18.135Z,360.00
2018-03-14T07:22:18.144Z,388.13
2018-03-14T07:23:18.128Z,331.88
2018-03-14T07:24:18.176Z,241.88
2018-03-14T07:25:18.127Z,264.38
2018-03-14T07:26:18.114Z,270.00
2018-03-14T07:27:18.111Z,225.00
2018-03-14T07:28:18.114Z,202.50
2018-03-14T07:29:18.149Z,180.00
2018-03-14T07:30:18.107Z,174.38
2018-03-14T07:31:18.096Z,202.50
2018-03-14T07:32:18.112Z,230.63
2018-03-14T07:33:18.088Z,258.75
2018-03-14T07:34:18.126Z,275.63
2018-03-14T07:35:18.095Z,270.00
2018-03-14T07:36:18.079Z,264.38
2018-03-14T07:37:18.072Z,264.38
2018-03-14T07:38:18.073Z,258.75
2018-03-14T07:39:18.135Z,264.38
2018-03-14T07:40:18.061Z,270.00
2018-03-14T07:41:18.060Z,286.88
2018-03-14T07:42:18.348Z,303.75
2018-03-14T07:43:18.052Z,292.50
2018-03-14T07:44:18.113Z,292.50
2018-03-14T07:45:18.048Z,275.63
2018-03-14T07:46:18.062Z,253.13
2018-03-14T07:47:18.041Z,253.13
2018-03-14T07:48:18.034Z,247.50
2018-03-14T07:49:18.084Z,219.38
2018-03-14T07:50:18.028Z,185.63
2018-03-14T07:51:18.045Z,174.38
2018-03-14T07:52:18.063Z,180.00
2018-03-14T07:53:18.896Z,208.13
2018-03-14T07:54:18.013Z,264.38
2018-03-14T07:55:18.048Z,298.13
2018-03-14T07:56:18.032Z,309.38
2018-03-14T07:57:18.000Z,320.63
2018-03-14T07:58:18.000Z,320.63
2018-03-14T07:59:18.002Z,320.63
2018-03-14T08:00:18.033Z,326.25
2018-03-14T08:01:18.024Z,348.75
2018-03-14T08:02:17.991Z,354.38
2018-03-14T08:03:17.997Z,354.38
2018-03-14T08:04:17.977Z,354.38
2018-03-14T08:05:18.020Z,360.00
2018-03-14T08:06:17.979Z,354.38
2018-03-14T08:07:17.968Z,348.75
2018-03-14T08:08:17.962Z,348.75
2018-03-14T08:09:17.959Z,343.13
2018-03-14T08:10:18.008Z,337.50
2018-03-14T08:11:17.956Z,326.25
2018-03-14T08:12:17.989Z,315.00
2018-03-14T08:13:17.949Z,315.00
2018-03-14T08:14:17.942Z,315.00
2018-03-14T08:15:17.940Z,315.00
2018-03-14T08:16:17.990Z,326.25
2018-03-14T08:17:17.932Z,331.88
2018-03-14T08:18:17.929Z,331.88
2018-03-14T08:19:17.928Z,348.75
2018-03-14T08:20:17.927Z,371.25
2018-03-14T08:21:17.969Z,371.25
2018-03-14T08:22:17.966Z,354.38
2018-03-14T08:23:17.921Z,348.75
2018-03-14T08:24:17.911Z,354.38
2018-03-14T08:25:17.904Z,354.38
2018-03-14T08:26:17.901Z,348.75
2018-03-14T08:27:17.936Z,354.38
2018-03-14T08:28:17.899Z,371.25
2018-03-14T08:29:17.890Z,388.13
2018-03-14T08:30:17.893Z,388.13
2018-03-14T08:31:17.926Z,388.13
2018-03-14T08:32:17.884Z,416.25
2018-03-14T08:33:17.890Z,444.38
2018-03-14T08:34:17.875Z,472.50
2018-03-14T08:35:17.943Z,495.00
2018-03-14T08:36:17.909Z,511.88
2018-03-14T08:37:17.865Z,523.13
2018-03-14T08:38:17.863Z,528.75
2018-03-14T08:39:17.897Z,534.38
2018-03-14T08:40:17.872Z,556.88
2018-03-14T08:41:17.920Z,596.25
2018-03-14T08:42:17.851Z,624.38
2018-03-14T08:43:19.722Z,669.38
2018-03-14T08:44:17.845Z,714.38
2018-03-14T08:45:17.860Z,753.75
2018-03-14T08:46:17.877Z,787.50
2018-03-14T08:47:17.887Z,804.38
2018-03-14T08:48:17.871Z,821.25
2018-03-14T08:49:17.827Z,838.13
2018-03-14T08:50:17.827Z,849.38
2018-03-14T08:51:17.823Z,866.25
2018-03-14T08:52:17.875Z,900.00
2018-03-14T08:53:17.819Z,950.63
2018-03-14T08:54:17.830Z,990.00
2018-03-14T08:55:17.838Z,1035.00
2018-03-14T08:56:17.810Z,1057.50
2018-03-14T08:57:17.853Z,1029.38
2018-03-14T08:58:17.805Z,961.88
2018-03-14T08:59:17.821Z,922.50
2018-03-14T09:00:17.812Z,894.38
2018-03-14T09:01:17.849Z,866.25
2018-03-14T09:02:17.950Z,871.88
2018-03-14T09:03:17.793Z,905.63
2018-03-14T09:04:17.820Z,928.13
2018-03-14T09:05:17.788Z,905.63
2018-03-14T09:06:17.850Z,894.38
2018-03-14T09:07:17.792Z,883.13
2018-03-14T09:08:17.790Z,866.25
2018-03-14T09:09:17.801Z,838.13
2018-03-14T09:10:17.784Z,894.38
2018-03-14T09:11:17.822Z,995.63
2018-03-14T09:12:17.799Z,1029.38
2018-03-14T09:13:17.784Z,995.63
2018-03-14T09:14:18.860Z,995.63
2018-03-14T09:15:17.777Z,1029.38
2018-03-14T09:16:17.815Z,1046.25
2018-03-14T09:17:17.772Z,1057.50
2018-03-14T09:18:17.768Z,1029.38
2018-03-14T09:19:17.784Z,984.38
2018-03-14T09:20:17.768Z,928.13
2018-03-14T09:21:17.815Z,860.63
2018-03-14T09:22:17.773Z,798.75
2018-03-14T09:23:17.758Z,753.75
2018-03-14T09:24:17.754Z,703.13
2018-03-14T09:25:17.760Z,663.75
2018-03-14T09:26:17.811Z,652.50
2018-03-14T09:27:17.748Z,675.00
2018-03-14T09:28:17.761Z,742.50
2018-03-14T09:29:17.902Z,838.13
2018-03-14T09:30:17.746Z,916.88
2018-03-14T09:31:17.780Z,950.63
2018-03-14T09:32:17.737Z,984.38
2018-03-14T09:33:17.849Z,1057.50
2018-03-14T09:34:17.764Z,1113.75
2018-03-14T09:35:17.790Z,1091.25
2018-03-14T09:36:17.778Z,1063.13
2018-03-14T09:37:17.731Z,1018.13
2018-03-14T09:38:17.736Z,961.88
2018-03-14T09:39:17.726Z,815.63
2018-03-14T09:40:17.767Z,810.00
2018-03-14T09:41:17.747Z,798.75
2018-03-14T09:42:17.735Z,787.50
2018-03-14T09:43:17.749Z,742.50
2018-03-14T09:44:17.723Z,720.00
2018-03-14T09:45:17.803Z,714.38
2018-03-14T09:46:17.723Z,686.25
2018-03-14T09:47:17.713Z,658.13
2018-03-14T09:48:17.714Z,641.25
2018-03-14T09:49:17.710Z,618.75
2018-03-14T09:50:17.774Z,585.00
2018-03-14T09:51:17.708Z,590.63
2018-03-14T09:52:17.706Z,646.88
2018-03-14T09:53:17.721Z,691.88
2018-03-14T09:54:17.705Z,708.75
2018-03-14T09:55:17.740Z,624.38
2018-03-14T09:56:17.711Z,562.50
2018-03-14T09:57:17.698Z,534.38
2018-03-14T09:58:17.696Z,506.25
2018-03-14T09:59:17.695Z,495.00
2018-03-14T10:00:17.741Z,478.13
2018-03-14T10:01:17.689Z,540.00
2018-03-14T10:02:17.690Z,601.88
2018-03-14T10:03:17.690Z,697.50
2018-03-14T10:04:17.687Z,781.88
2018-03-14T10:05:17.727Z,821.25
2018-03-14T10:06:17.683Z,815.63
2018-03-14T10:07:17.691Z,793.13
2018-03-14T10:08:17.679Z,781.88
2018-03-14T10:09:17.680Z,742.50
2018-03-14T10:10:17.720Z,748.13
2018-03-14T10:11:17.676Z,815.63
2018-03-14T10:12:17.675Z,843.75
2018-03-14T10:13:17.685Z,855.00
2018-03-14T10:14:17.669Z,849.38
2018-03-14T10:15:17.705Z,860.63
2018-03-14T10:16:17.666Z,883.13
2018-03-14T10:17:17.684Z,905.63
2018-03-14T10:18:17.660Z,832.50
2018-03-14T10:19:17.712Z,742.50
2018-03-14T10:20:17.697Z,652.50
2018-03-14T10:21:17.656Z,551.25
2018-03-14T10:22:17.655Z,461.25
2018-03-14T10:23:17.652Z,405.00
2018-03-14T10:24:17.663Z,388.13
2018-03-14T10:25:17.691Z,399.38
2018-03-14T10:26:17.650Z,393.75
2018-03-14T10:27:17.648Z,371.25
2018-03-14T10:28:17.646Z,331.88
2018-03-14T10:29:17.644Z,275.63
2018-03-14T10:30:17.680Z,236.25
2018-03-14T10:31:17.641Z,213.75
2018-03-14T10:32:17.639Z,208.13
2018-03-14T10:33:17.675Z,196.88
2018-03-14T10:34:17.638Z,196.88
2018-03-14T10:35:17.673Z,196.88
2018-03-14T10:36:17.629Z,208.13
2018-03-14T10:37:17.642Z,225.00
2018-03-14T10:38:17.667Z,241.88
2018-03-14T10:39:17.626Z,241.88
2018-03-14T10:40:17.673Z,241.88
2018-03-14T10:41:17.621Z,241.88
2018-03-14T10:42:17.618Z,236.25
2018-03-14T10:43:17.617Z,247.50
2018-03-14T10:44:17.614Z,264.38
2018-03-14T10:45:17.659Z,286.88
2018-03-14T10:46:17.607Z,326.25
2018-03-14T10:47:17.604Z,399.38
2018-03-14T10:48:17.624Z,489.38
2018-03-14T10:49:17.596Z,545.63
2018-03-14T10:50:17.645Z,545.63
2018-03-14T10:51:17.592Z,540.00
2018-03-14T10:52:17.588Z,517.50
2018-03-14T10:53:17.586Z,506.25
2018-03-14T10:54:17.586Z,478.13
2018-03-14T10:55:17.653Z,438.75
2018-03-14T10:56:17.578Z,399.38
2018-03-14T10:57:17.574Z,388.13
2018-03-14T10:58:17.572Z,371.25
2018-03-14T10:59:17.568Z,331.88
2018-03-14T11:00:17.606Z,298.13
2018-03-14T11:01:17.605Z,281.25
2018-03-14T11:02:17.563Z,258.75
2018-03-14T11:03:17.560Z,247.50
2018-03-14T11:04:17.561Z,247.50
2018-03-14T11:05:17.571Z,270.00
2018-03-14T11:06:17.603Z,286.88
2018-03-14T11:07:17.548Z,298.13
2018-03-14T11:08:17.545Z,303.75
2018-03-14T11:09:17.547Z,303.75
2018-03-14T11:10:17.541Z,292.50
2018-03-14T11:11:17.571Z,281.25
2018-03-14T11:12:17.532Z,264.38
2018-03-14T11:13:17.531Z,236.25
2018-03-14T11:14:17.526Z,202.50
2018-03-14T11:15:17.546Z,180.00
2018-03-14T11:16:17.588Z,174.38
2018-03-14T11:17:17.519Z,196.88
2018-03-14T11:18:17.516Z,236.25
2018-03-14T11:19:17.526Z,275.63
2018-03-14T11:20:17.517Z,292.50
2018-03-14T11:21:17.558Z,309.38
2018-03-14T11:22:17.504Z,309.38
2018-03-14T11:23:17.503Z,320.63
2018-03-14T11:24:17.499Z,343.13
2018-03-14T11:25:17.498Z,365.63
2018-03-14T11:26:17.556Z,393.75
2018-03-14T11:27:17.487Z,421.88
2018-03-14T11:28:17.486Z,455.63
2018-03-14T11:29:17.484Z,495.00
2018-03-14T11:30:17.484Z,528.75
2018-03-14T11:31:17.483Z,551.25
2018-03-14T11:32:17.547Z,556.88
2018-03-14T11:33:17.471Z,551.25
2018-03-14T11:34:17.467Z,528.75
2018-03-14T11:35:17.466Z,511.88
2018-03-14T11:36:17.501Z,495.00
2018-03-14T11:37:17.464Z,483.75
2018-03-14T11:38:17.495Z,483.75
2018-03-14T11:39:17.481Z,466.88
2018-03-14T11:40:17.451Z,416.25
2018-03-14T11:41:17.448Z,382.50
2018-03-14T11:42:17.512Z,376.88
2018-03-14T11:43:18.227Z,388.13
2018-03-14T11:44:17.441Z,388.13
2018-03-14T11:45:17.450Z,393.75
2018-03-14T11:46:17.437Z,416.25
2018-03-14T11:47:17.432Z,461.25
2018-03-14T11:48:17.472Z,511.88
2018-03-14T11:49:17.438Z,590.63
2018-03-14T11:50:17.423Z,658.13
2018-03-14T11:51:17.426Z,714.38
2018-03-14T11:52:17.420Z,753.75
2018-03-14T11:53:17.523Z,776.25
2018-03-14T11:54:17.414Z,804.38
2018-03-14T11:55:17.410Z,793.13
2018-03-14T11:56:17.438Z,781.88
2018-03-14T11:57:17.572Z,781.88
2018-03-14T11:58:18.144Z,798.75
2018-03-14T11:59:17.423Z,821.25
2018-03-14T12:00:17.398Z,832.50
2018-03-14T12:01:17.396Z,826.88
2018-03-14T12:02:17.394Z,821.25
2018-03-14T12:03:17.392Z,838.13
2018-03-14T12:04:17.461Z,888.75
2018-03-14T12:05:17.387Z,956.25
2018-03-14T12:06:17.383Z,1023.75
2018-03-14T12:07:17.383Z,1063.13
2018-03-14T12:08:17.378Z,1091.25
2018-03-14T12:09:17.425Z,1141.88
2018-03-14T12:10:17.423Z,1198.13
2018-03-14T12:11:17.372Z,1226.25
2018-03-14T12:12:17.397Z,1248.75
2018-03-14T12:13:17.385Z,1282.50
2018-03-14T12:14:17.405Z,1271.25
2018-03-14T12:15:17.966Z,1271.25
2018-03-14T12:16:17.408Z,1260.00
2018-03-14T12:17:17.363Z,1243.13
2018-03-14T12:18:17.359Z,1248.75
2018-03-14T12:19:17.395Z,1265.63
2018-03-14T12:20:17.381Z,1288.13
2018-03-14T12:21:17.354Z,1305.00
2018-03-14T12:22:17.356Z,1316.25
2018-03-14T12:23:17.360Z,1316.25
2018-03-14T12:24:17.394Z,1333.13
2018-03-14T12:25:18.242Z,1372.50
2018-03-14T12:26:17.390Z,1400.63
2018-03-14T12:27:17.350Z,1440.00
2018-03-14T12:28:17.347Z,1485.00
2018-03-14T12:29:17.396Z,1546.88
2018-03-14T12:30:17.350Z,1597.50
2018-03-14T12:31:17.391Z,1518.75
2018-03-14T12:32:17.349Z,1490.63
2018-03-14T12:33:17.447Z,1513.13
2018-03-14T12:34:17.346Z,1479.38
2018-03-14T12:35:17.384Z,1507.50
2018-03-14T12:36:17.348Z,1710.00
2018-03-14T12:37:17.347Z,1884.38
2018-03-14T12:38:17.345Z,1968.75
2018-03-14T12:39:17.345Z,2143.13
2018-03-14T12:40:17.389Z,2536.88
2018-03-14T12:41:17.349Z,1935.00
2018-03-14T12:42:17.346Z,2536.88
2018-03-14T12:43:17.348Z,1423.13
2018-03-14T12:44:17.369Z,1327.50
2018-03-14T12:45:17.401Z,1327.50
2018-03-14T12:46:17.376Z,1355.63
2018-03-14T12:47:17.409Z,1378.13
2018-03-14T12:48:17.768Z,1400.63
2018-03-14T12:49:17.354Z,1417.50